createdAt,value
2023-05-24T00:01:26.092Z,7.20
2023-05-24T00:03:53.845Z,7.28
2023-05-24T00:06:21.563Z,7.20
2023-05-24T00:08:48.867Z,6.97
2023-05-24T00:11:16.479Z,7.85
2023-05-24T00:13:43.787Z,4.97
2023-05-24T00:16:11.423Z,4.68
2023-05-24T00:18:38.747Z,8.25
2023-05-24T00:21:09.242Z,6.97
2023-05-24T00:23:49.639Z,6.50
2023-05-24T00:26:17.474Z,5.93
2023-05-24T00:28:44.809Z,5.40
2023-05-24T00:31:12.407Z,3.60
2023-05-24T00:33:56.875Z,3.13
2023-05-24T00:36:24.578Z,3.20
2023-05-24T00:38:51.900Z,1.95
2023-05-24T00:41:19.568Z,2.10
2023-05-24T00:43:46.871Z,2.42
2023-05-24T00:46:16.712Z,1.70
2023-05-24T00:48:44.582Z,1.88
2023-05-24T00:51:12.823Z,2.08
2023-05-24T00:53:41.280Z,1.80
2023-05-24T00:56:09.073Z,1.70
2023-05-24T00:58:42.597Z,1.67
2023-05-24T01:01:10.309Z,1.65
2023-05-24T01:03:39.904Z,1.20
2023-05-24T01:06:07.980Z,1.10
2023-05-24T01:08:38.898Z,1.40
2023-05-24T01:11:16.198Z,0.10
2023-05-24T01:13:51.717Z,1.23
2023-05-24T01:16:19.289Z,1.40
2023-05-24T01:19:02.102Z,1.30
2023-05-24T01:21:48.194Z,0.95
2023-05-24T01:24:25.566Z,1.55
2023-05-24T01:26:53.125Z,1.35
2023-05-24T01:29:20.844Z,1.25
2023-05-24T01:31:48.799Z,1.10
2023-05-24T01:34:16.226Z,1.45
2023-05-24T01:36:43.937Z,1.48
2023-05-24T01:39:11.471Z,1.23
2023-05-24T01:41:41.612Z,1.55
2023-05-24T01:44:27.443Z,1.35
2023-05-24T01:47:10.335Z,1.05
2023-05-24T01:49:42.225Z,1.58
2023-05-24T01:54:38.455Z,1.60
2023-05-24T01:57:07.635Z,1.48
2023-05-24T01:59:35.528Z,2.10
2023-05-24T02:02:03.222Z,1.25
2023-05-24T02:04:30.838Z,1.30
2023-05-24T02:06:58.469Z,1.73
2023-05-24T02:09:25.814Z,2.03
2023-05-24T02:11:53.393Z,2.40
2023-05-24T02:14:20.832Z,1.80
2023-05-24T02:16:48.716Z,1.92
2023-05-24T02:19:16.721Z,1.95
2023-05-24T02:21:44.422Z,3.08
2023-05-24T02:24:11.837Z,2.55
2023-05-24T02:26:39.455Z,1.90
2023-05-24T02:29:06.794Z,1.90
2023-05-24T02:31:34.528Z,2.13
2023-05-24T02:34:02.165Z,2.00
2023-05-24T02:36:29.782Z,1.80
2023-05-24T02:38:57.116Z,1.45
2023-05-24T02:41:24.697Z,1.60
2023-05-24T02:43:52.031Z,1.50
2023-05-24T02:46:21.112Z,1.90
2023-05-24T02:48:48.555Z,0.00
2023-05-24T02:51:36.244Z,1.98
2023-05-24T02:54:03.582Z,1.65
2023-05-24T02:56:31.198Z,2.58
2023-05-24T02:58:59.557Z,1.50
2023-05-24T03:01:43.171Z,1.48
2023-05-24T03:04:13.491Z,1.40
2023-05-24T03:06:41.174Z,2.05
2023-05-24T03:09:23.710Z,1.98
2023-05-24T03:11:51.304Z,1.73
2023-05-24T03:14:18.625Z,1.65
2023-05-24T03:16:46.224Z,2.10
2023-05-24T03:19:13.627Z,1.60
2023-05-24T03:21:41.318Z,1.73
2023-05-24T03:24:08.710Z,2.17
2023-05-24T03:26:36.360Z,1.70
2023-05-24T03:29:03.744Z,1.80
2023-05-24T03:31:31.408Z,1.60
2023-05-24T03:33:58.819Z,1.60
2023-05-24T03:36:26.374Z,1.98
2023-05-24T03:39:01.005Z,1.58
2023-05-24T03:41:28.651Z,1.55
2023-05-24T03:43:55.970Z,1.73
2023-05-24T03:46:30.752Z,1.48
2023-05-24T03:48:58.084Z,1.55
2023-05-24T03:51:25.662Z,1.30
2023-05-24T03:53:53.054Z,1.92
2023-05-24T03:56:20.681Z,1.30
2023-05-24T03:58:48.002Z,1.45
2023-05-24T04:01:35.485Z,1.38
2023-05-24T04:04:03.628Z,1.40
2023-05-24T04:06:31.348Z,1.10
2023-05-24T04:08:59.281Z,1.38
2023-05-24T04:11:26.856Z,1.40
2023-05-24T04:13:54.520Z,1.55
2023-05-24T04:16:22.685Z,1.50
2023-05-24T04:18:53.286Z,1.60
2023-05-24T04:21:26.946Z,1.52
2023-05-24T04:23:54.242Z,1.88
2023-05-24T04:26:21.876Z,1.67
2023-05-24T04:28:49.197Z,1.67
2023-05-24T04:31:16.912Z,1.60
2023-05-24T04:33:44.258Z,1.55
2023-05-24T04:36:12.165Z,1.48
2023-05-24T04:38:39.818Z,1.70
2023-05-24T04:41:07.513Z,2.20
2023-05-24T04:43:34.837Z,1.88
2023-05-24T04:46:02.626Z,2.03
2023-05-24T04:48:29.928Z,1.65
2023-05-24T04:50:57.765Z,1.90
2023-05-24T04:53:25.143Z,1.25
2023-05-24T04:55:53.269Z,1.67
2023-05-24T04:58:20.737Z,1.98
2023-05-24T05:00:48.311Z,2.40
2023-05-24T05:03:15.776Z,1.55
2023-05-24T05:05:43.528Z,1.80
2023-05-24T05:08:10.850Z,1.98
2023-05-24T05:10:38.461Z,2.13
2023-05-24T05:13:05.738Z,2.30
2023-05-24T05:15:33.908Z,2.60
2023-05-24T05:18:01.256Z,2.20
2023-05-24T05:20:28.871Z,1.90
2023-05-24T05:22:56.194Z,2.45
2023-05-24T05:25:23.813Z,2.20
2023-05-24T05:27:57.213Z,2.20
2023-05-24T05:30:24.833Z,2.60
2023-05-24T05:32:52.449Z,2.17
2023-05-24T05:35:20.158Z,2.60
2023-05-24T05:37:47.457Z,2.75
2023-05-24T05:40:15.088Z,2.33
2023-05-24T05:42:42.390Z,2.28
2023-05-24T05:45:10.157Z,2.10
2023-05-24T05:47:37.556Z,2.85
2023-05-24T05:50:05.369Z,4.15
2023-05-24T05:52:32.649Z,4.07
2023-05-24T05:55:00.423Z,4.43
2023-05-24T05:57:27.725Z,4.40
2023-05-24T05:59:55.336Z,3.72
2023-05-24T06:02:24.805Z,3.67
2023-05-24T06:04:52.791Z,3.78
2023-05-24T06:07:20.326Z,3.25
2023-05-24T06:09:58.400Z,3.00
2023-05-24T06:12:26.000Z,2.40
2023-05-24T06:14:53.578Z,2.45
2023-05-24T06:17:20.932Z,2.60
2023-05-24T06:19:48.695Z,2.60
2023-05-24T06:22:16.020Z,2.15
2023-05-24T06:24:43.666Z,2.67
2023-05-24T06:27:10.980Z,2.50
2023-05-24T06:29:38.595Z,2.67
2023-05-24T06:32:06.043Z,2.28
2023-05-24T06:34:33.636Z,2.30
2023-05-24T06:37:00.930Z,2.10
2023-05-24T06:39:28.612Z,2.35
2023-05-24T06:41:57.051Z,1.92
2023-05-24T06:44:25.389Z,2.45
2023-05-24T06:46:52.807Z,2.38
2023-05-24T06:49:20.388Z,2.20
2023-05-24T06:51:50.509Z,2.35
2023-05-24T06:54:18.166Z,2.10
2023-05-24T06:56:45.467Z,1.90
2023-05-24T06:59:13.300Z,2.15
2023-05-24T07:01:40.650Z,2.08
2023-05-24T07:04:08.933Z,2.03
2023-05-24T07:06:38.534Z,2.30
2023-05-24T07:09:06.187Z,2.42
2023-05-24T07:11:33.586Z,2.40
2023-05-24T07:14:01.240Z,1.92
2023-05-24T07:16:28.530Z,2.42
2023-05-24T07:18:56.179Z,2.20
2023-05-24T07:21:23.691Z,2.58
2023-05-24T07:23:51.577Z,2.50
2023-05-24T07:26:18.963Z,2.22
2023-05-24T07:28:46.552Z,2.05
2023-05-24T07:31:13.878Z,2.65
2023-05-24T07:33:41.506Z,2.13
2023-05-24T07:36:09.078Z,2.65
2023-05-24T07:38:36.650Z,2.47
2023-05-24T07:41:06.665Z,2.85
2023-05-24T07:43:34.271Z,2.60
2023-05-24T07:46:01.783Z,2.78
2023-05-24T07:48:29.508Z,3.03
2023-05-24T07:50:56.811Z,2.65
2023-05-24T07:53:24.461Z,2.67
2023-05-24T07:55:51.854Z,2.90
2023-05-24T07:58:31.564Z,2.40
2023-05-24T08:04:16.530Z,2.55
2023-05-24T08:06:43.913Z,2.85
2023-05-24T08:09:11.574Z,2.80
2023-05-24T08:11:38.908Z,3.40
2023-05-24T08:14:09.482Z,3.25
2023-05-24T08:16:36.816Z,2.78
2023-05-24T08:19:11.672Z,3.25
2023-05-24T08:21:39.012Z,3.67
2023-05-24T08:24:09.114Z,3.00
2023-05-24T08:26:39.403Z,2.88
2023-05-24T08:29:07.090Z,3.38
2023-05-24T08:31:34.507Z,4.18
2023-05-24T08:34:07.771Z,3.40
2023-05-24T08:36:54.105Z,2.70
2023-05-24T08:41:01.756Z,2.90
2023-05-24T08:47:21.502Z,3.20
2023-05-24T08:50:11.008Z,2.85
2023-05-24T08:52:47.997Z,2.83
2023-05-24T08:55:15.561Z,3.35
2023-05-24T08:57:45.866Z,3.28
2023-05-24T09:00:13.535Z,3.03
2023-05-24T09:02:42.122Z,2.67
2023-05-24T09:05:11.105Z,2.95
2023-05-24T09:07:45.433Z,3.00
2023-05-24T09:10:13.278Z,2.55
2023-05-24T09:12:45.050Z,3.17
2023-05-24T09:15:12.595Z,2.80
2023-05-24T09:17:43.493Z,2.63
2023-05-24T09:20:14.125Z,2.97
2023-05-24T09:22:45.249Z,2.45
2023-05-24T09:25:15.785Z,2.97
2023-05-24T09:27:49.016Z,2.42
2023-05-24T09:30:19.726Z,2.63
2023-05-24T09:33:03.540Z,3.05
2023-05-24T09:35:31.113Z,2.95
2023-05-24T09:38:21.838Z,2.80
2023-05-24T09:41:13.832Z,2.90
2023-05-24T09:43:50.811Z,3.35
2023-05-24T09:46:18.575Z,2.60
2023-05-24T09:49:27.725Z,2.42
2023-05-24T09:51:55.792Z,2.60
2023-05-24T09:54:33.640Z,2.70
2023-05-24T09:57:03.437Z,2.97
2023-05-24T09:59:34.912Z,2.85
2023-05-24T10:02:08.503Z,2.80
2023-05-24T10:04:41.935Z,2.88
2023-05-24T10:07:09.312Z,3.10
2023-05-24T10:09:47.238Z,3.00
2023-05-24T10:12:18.969Z,2.85
2023-05-24T10:14:47.370Z,4.10
2023-05-24T10:17:24.788Z,3.08
2023-05-24T10:19:52.598Z,3.08
2023-05-24T10:22:27.353Z,2.90
2023-05-24T10:24:57.923Z,3.38
2023-05-24T10:27:32.816Z,3.15
2023-05-24T10:30:21.014Z,3.55
2023-05-24T10:32:54.457Z,3.17
2023-05-24T10:35:22.899Z,3.53
2023-05-24T10:37:50.321Z,3.70
2023-05-24T10:40:24.732Z,3.30
2023-05-24T10:42:54.113Z,2.95
2023-05-24T10:45:42.668Z,3.50
2023-05-24T10:48:12.905Z,3.40
2023-05-24T10:50:44.011Z,3.80
2023-05-24T10:53:12.659Z,3.05
2023-05-24T10:56:06.468Z,4.03
2023-05-24T10:58:33.812Z,3.65
2023-05-24T11:01:01.458Z,4.00
2023-05-24T11:03:34.763Z,3.75
2023-05-24T11:06:02.577Z,4.05
2023-05-24T11:08:34.431Z,3.53
2023-05-24T11:11:23.174Z,3.78
2023-05-24T11:13:58.060Z,3.97
2023-05-24T11:16:39.461Z,3.47
2023-05-24T11:19:16.335Z,3.40
2023-05-24T11:21:45.458Z,4.10
2023-05-24T11:24:12.952Z,3.58
2023-05-24T11:26:40.806Z,3.47
2023-05-24T11:29:09.493Z,3.47
2023-05-24T11:32:01.358Z,2.85
2023-05-24T11:34:29.832Z,3.00
2023-05-24T11:37:00.733Z,2.78
2023-05-24T11:39:37.440Z,3.03
2023-05-24T11:42:05.656Z,2.78
2023-05-24T11:44:36.079Z,3.33
2023-05-24T11:47:06.379Z,3.17
2023-05-24T11:49:33.840Z,3.42
2023-05-24T11:52:05.484Z,2.85
2023-05-24T11:54:32.956Z,3.20
2023-05-24T11:57:01.171Z,3.30
2023-05-24T11:59:31.914Z,2.72
2023-05-24T12:02:04.797Z,3.30
2023-05-24T12:07:03.686Z,3.38
2023-05-24T12:09:36.278Z,2.80
2023-05-24T12:12:04.041Z,3.08
2023-05-24T12:18:03.937Z,3.00
2023-05-24T12:20:31.840Z,3.00
2023-05-24T12:23:00.792Z,3.38
2023-05-24T12:25:28.183Z,2.70
2023-05-24T12:27:56.210Z,3.45
2023-05-24T12:30:24.071Z,3.10
2023-05-24T12:32:54.544Z,3.03
2023-05-24T12:35:27.907Z,2.92
2023-05-24T12:38:01.772Z,3.20
2023-05-24T12:40:40.324Z,3.13
2023-05-24T12:43:11.880Z,2.65
2023-05-24T12:45:39.276Z,2.80
2023-05-24T12:48:07.257Z,2.70
2023-05-24T12:50:34.734Z,2.60
2023-05-24T12:53:02.618Z,2.90
2023-05-24T12:55:30.114Z,3.13
2023-05-24T12:57:58.274Z,2.97
2023-05-24T13:00:26.225Z,3.03
2023-05-24T13:02:54.141Z,3.65
2023-05-24T13:08:09.916Z,3.40
2023-05-24T13:10:38.119Z,3.17
2023-05-24T13:14:09.967Z,3.38
2023-05-24T13:16:04.887Z,3.13
2023-05-24T13:18:40.187Z,3.10
2023-05-24T13:25:27.140Z,2.60
2023-05-24T13:28:32.311Z,2.72
2023-05-24T13:31:10.024Z,2.92
2023-05-24T13:33:38.040Z,2.80
2023-05-24T13:36:05.470Z,2.63
2023-05-24T13:38:33.143Z,2.50
2023-05-24T13:41:03.402Z,2.45
2023-05-24T13:43:31.053Z,2.13
2023-05-24T13:45:58.459Z,2.38
2023-05-24T13:48:31.705Z,2.40
2023-05-24T13:50:59.173Z,2.47
2023-05-24T13:53:27.733Z,2.40
2023-05-24T13:55:55.198Z,2.50
2023-05-24T14:01:43.941Z,2.70
2023-05-24T14:04:11.796Z,2.63
2023-05-24T14:06:41.613Z,3.72
2023-05-24T14:09:21.357Z,2.60
2023-05-24T14:11:48.897Z,2.30
2023-05-24T14:16:46.765Z,3.03
2023-05-24T14:19:17.706Z,3.30
2023-05-24T14:21:45.065Z,2.60
2023-05-24T14:24:12.686Z,2.70
2023-05-24T14:26:45.710Z,2.60
2023-05-24T14:29:13.535Z,2.42
2023-05-24T14:31:40.862Z,2.95
2023-05-24T14:34:11.040Z,2.35
2023-05-24T14:36:39.023Z,2.30
2023-05-24T14:39:07.397Z,2.28
2023-05-24T14:41:34.766Z,3.60
2023-05-24T14:44:02.582Z,1.95
2023-05-24T14:46:32.888Z,1.95
2023-05-24T14:49:05.704Z,3.15
2023-05-24T14:51:35.175Z,1.90
2023-05-24T14:54:02.879Z,2.30
2023-05-24T15:03:53.158Z,2.03
2023-05-24T15:07:34.421Z,2.20
2023-05-24T15:10:20.904Z,1.88
2023-05-24T15:13:19.674Z,2.40
2023-05-24T15:16:12.054Z,2.25
2023-05-24T15:18:58.060Z,2.00
2023-05-24T15:21:37.977Z,2.33
2023-05-24T15:24:08.524Z,2.22
2023-05-24T15:26:36.237Z,1.92
2023-05-24T15:36:06.894Z,2.22
2023-05-24T15:38:41.256Z,2.60
2023-05-24T15:44:25.277Z,2.50
2023-05-24T15:46:52.938Z,2.20
2023-05-24T15:49:33.606Z,2.88
2023-05-24T15:52:04.941Z,2.40
2023-05-24T15:54:33.200Z,2.17
2023-05-24T16:00:32.947Z,2.47
2023-05-24T16:06:22.991Z,2.25
2023-05-24T16:08:51.066Z,2.88
2023-05-24T16:11:21.891Z,2.33
2023-05-24T16:14:13.776Z,2.08
2023-05-24T16:16:44.672Z,2.38
2023-05-24T16:19:12.844Z,2.58
2023-05-24T16:21:52.103Z,2.60
2023-05-24T16:24:19.886Z,2.25
2023-05-24T16:26:49.619Z,2.63
2023-05-24T16:29:21.585Z,2.35
2023-05-24T16:31:49.131Z,2.70
2023-05-24T16:34:26.138Z,2.70
2023-05-24T16:36:53.470Z,2.13
2023-05-24T16:39:21.340Z,2.25
2023-05-24T16:41:48.954Z,2.33
2023-05-24T16:44:20.327Z,2.70
2023-05-24T16:46:54.202Z,1.92
2023-05-24T16:49:23.836Z,1.90
2023-05-24T16:51:51.151Z,1.95
2023-05-24T16:57:51.516Z,2.10
2023-05-24T17:00:19.793Z,2.30
2023-05-24T17:02:47.581Z,2.38
2023-05-24T17:05:16.070Z,2.28
2023-05-24T17:07:54.383Z,2.05
2023-05-24T17:10:58.014Z,2.10
2023-05-24T17:13:47.509Z,2.72
2023-05-24T17:42:53.187Z,2.08
2023-05-24T17:45:39.476Z,2.30
2023-05-24T17:48:34.087Z,2.28
2023-05-24T17:51:09.589Z,2.33
2023-05-24T17:53:37.795Z,2.47
2023-05-24T17:56:09.424Z,2.08
2023-05-24T17:58:47.610Z,1.90
2023-05-24T18:01:24.062Z,1.92
2023-05-24T18:03:55.116Z,2.97
2023-05-24T18:06:29.246Z,2.35
2023-05-24T18:08:56.731Z,1.88
2023-05-24T18:11:24.712Z,2.13
2023-05-24T18:13:55.190Z,2.10
2023-05-24T18:24:04.037Z,1.77
2023-05-24T18:26:51.332Z,1.90
2023-05-24T18:36:17.131Z,2.25
2023-05-24T18:39:03.577Z,2.00
2023-05-24T18:41:31.770Z,2.10
2023-05-24T18:43:59.385Z,2.42
2023-05-24T18:46:27.136Z,1.92
2023-05-24T18:49:04.336Z,2.03
2023-05-24T18:51:33.381Z,1.83
2023-05-24T18:54:00.904Z,2.35
2023-05-24T18:56:29.424Z,2.60
2023-05-24T18:58:56.853Z,2.05
2023-05-24T19:01:28.176Z,2.47
2023-05-24T19:03:56.278Z,2.50
2023-05-24T19:06:39.838Z,2.75
2023-05-24T19:09:08.664Z,2.40
2023-05-24T19:11:47.709Z,2.47
2023-05-24T19:14:24.130Z,2.70
2023-05-24T19:16:57.430Z,2.63
2023-05-24T19:25:05.469Z,3.08
2023-05-24T19:27:57.919Z,2.80
2023-05-24T19:30:42.172Z,2.65
2023-05-24T19:33:33.750Z,2.90
2023-05-24T19:39:52.107Z,3.00
2023-05-24T19:42:20.623Z,3.25
2023-05-24T19:44:48.561Z,2.35
2023-05-24T19:47:17.051Z,3.20
2023-05-24T19:53:17.056Z,3.50
2023-05-24T19:55:48.866Z,2.80
2023-05-24T19:58:19.993Z,3.00
2023-05-24T20:00:55.685Z,3.65
2023-05-24T20:03:25.007Z,4.03
2023-05-24T20:05:54.518Z,3.78
2023-05-24T20:08:24.341Z,3.20
2023-05-24T20:10:58.188Z,3.10
2023-05-24T20:13:37.292Z,3.60
2023-05-24T20:16:23.749Z,3.97
2023-05-24T20:18:55.555Z,3.60
2023-05-24T20:21:23.556Z,3.25
2023-05-24T20:23:59.032Z,4.18
2023-05-24T20:26:45.218Z,3.70
2023-05-24T20:29:13.156Z,3.45
2023-05-24T20:31:40.718Z,3.40
2023-05-24T20:34:26.253Z,3.30
2023-05-24T20:40:44.641Z,4.05
2023-05-24T20:43:12.600Z,4.25
2023-05-24T20:45:40.211Z,3.70
2023-05-24T20:48:10.201Z,4.38
2023-05-24T20:50:38.345Z,3.80
2023-05-24T20:53:06.048Z,4.00
2023-05-24T20:55:33.467Z,4.60
2023-05-24T20:58:01.059Z,4.45
2023-05-24T21:00:31.226Z,3.50
2023-05-24T21:02:59.012Z,4.95
2023-05-24T21:08:42.536Z,4.63
2023-05-24T21:11:10.079Z,4.32
2023-05-24T21:13:38.549Z,4.07
2023-05-24T21:16:06.026Z,4.20
2023-05-24T21:18:33.684Z,3.45
2023-05-24T21:21:01.713Z,4.57
2023-05-24T21:26:00.319Z,4.90
2023-05-24T21:28:28.204Z,5.38
2023-05-24T21:30:55.645Z,5.28
2023-05-24T21:33:23.315Z,5.70
2023-05-24T21:35:50.743Z,5.32
2023-05-24T21:38:18.352Z,5.35
2023-05-24T21:40:50.932Z,5.78
2023-05-24T21:43:25.318Z,6.28
2023-05-24T21:45:52.720Z,5.57
2023-05-24T21:48:20.873Z,5.55
2023-05-24T21:50:50.408Z,5.68
2023-05-24T21:53:21.808Z,5.38
2023-05-24T21:55:51.970Z,3.95
2023-05-24T21:58:19.893Z,3.55
2023-05-24T22:06:17.354Z,5.10
2023-05-24T22:08:45.028Z,4.65
2023-05-24T22:11:12.380Z,4.85
2023-05-24T22:13:40.150Z,5.03
2023-05-24T22:16:07.565Z,6.45
2023-05-24T22:18:35.237Z,6.07
2023-05-24T22:21:04.570Z,5.55
2023-05-24T22:23:52.946Z,5.57
2023-05-24T22:26:20.553Z,4.13
2023-05-24T22:28:55.640Z,6.05
2023-05-24T22:31:23.102Z,6.68
2023-05-24T22:33:50.937Z,5.40
2023-05-24T22:36:18.291Z,5.95
2023-05-24T22:38:45.942Z,4.45
2023-05-24T22:41:13.394Z,5.75
2023-05-24T22:43:41.069Z,5.40
2023-05-24T22:46:10.554Z,6.07
2023-05-24T22:48:38.478Z,5.30
2023-05-24T22:51:06.174Z,5.93
2023-05-24T22:53:33.789Z,5.82
2023-05-24T22:56:01.227Z,5.43
2023-05-24T22:58:29.099Z,5.78
2023-05-24T23:01:00.783Z,5.93
2023-05-24T23:03:31.624Z,6.07
2023-05-24T23:05:59.188Z,5.20
2023-05-24T23:08:26.797Z,5.85
2023-05-24T23:10:54.162Z,5.53
2023-05-24T23:13:22.138Z,5.45
2023-05-24T23:15:49.508Z,6.05
2023-05-24T23:18:17.212Z,5.97
2023-05-24T23:20:44.650Z,6.15
2023-05-24T23:23:12.325Z,5.50
2023-05-24T23:25:39.882Z,5.13
2023-05-24T23:28:07.472Z,5.75
2023-05-24T23:30:34.786Z,5.57
2023-05-24T23:33:02.393Z,5.95
2023-05-24T23:35:29.726Z,5.95
2023-05-24T23:37:57.393Z,5.72
2023-05-24T23:40:24.745Z,5.15
2023-05-24T23:42:52.561Z,5.07
2023-05-24T23:45:20.063Z,5.22
2023-05-24T23:47:47.796Z,5.28
2023-05-24T23:50:15.158Z,6.20
2023-05-24T23:52:43.436Z,6.65
2023-05-24T23:55:13.653Z,6.13
2023-05-24T23:57:41.237Z,7.15
